sensor_id;sensor_type;location;lat;lon;timestamp;P1;durP1;ratioP1;P2;durP2;ratioP2
37085;SDS011;23001;45.952;12.676;2024-03-22T00:01:12;57.60;;;43.53;;
37085;SDS011;23001;45.952;12.676;2024-03-22T00:03:38;56.53;;;43.35;;
37085;SDS011;23001;45.952;12.676;2024-03-22T00:06:04;52.10;;;42.00;;
37085;SDS011;23001;45.952;12.676;2024-03-22T00:08:30;53.10;;;41.92;;
37085;SDS011;23001;45.952;12.676;2024-03-22T00:10:56;52.55;;;41.42;;
37085;SDS011;23001;45.952;12.676;2024-03-22T00:13:21;53.85;;;42.92;;
37085;SDS011;23001;45.952;12.676;2024-03-22T00:15:47;54.63;;;41.47;;
37085;SDS011;23001;45.952;12.676;2024-03-22T00:18:13;57.70;;;43.55;;
37085;SDS011;23001;45.952;12.676;2024-03-22T00:20:39;57.05;;;43.90;;
37085;SDS011;23001;45.952;12.676;2024-03-22T00:23:05;58.80;;;45.17;;
37085;SDS011;23001;45.952;12.676;2024-03-22T00:25:33;58.03;;;43.92;;
37085;SDS011;23001;45.952;12.676;2024-03-22T00:27:59;56.60;;;44.35;;
37085;SDS011;23001;45.952;12.676;2024-03-22T00:30:25;57.97;;;43.92;;
37085;SDS011;23001;45.952;12.676;2024-03-22T00:32:50;58.40;;;44.47;;
37085;SDS011;23001;45.952;12.676;2024-03-22T00:35:16;57.60;;;44.53;;
37085;SDS011;23001;45.952;12.676;2024-03-22T00:37:42;56.25;;;45.05;;
37085;SDS011;23001;45.952;12.676;2024-03-22T00:40:08;59.53;;;45.72;;
37085;SDS011;23001;45.952;12.676;2024-03-22T00:42:33;58.10;;;46.25;;
37085;SDS011;23001;45.952;12.676;2024-03-22T00:44:59;57.53;;;44.53;;
37085;SDS011;23001;45.952;12.676;2024-03-22T00:47:25;54.90;;;43.60;;
37085;SDS011;23001;45.952;12.676;2024-03-22T00:49:51;53.13;;;41.88;;
37085;SDS011;23001;45.952;12.676;2024-03-22T00:52:17;55.67;;;43.95;;
37085;SDS011;23001;45.952;12.676;2024-03-22T00:54:42;60.92;;;46.00;;
37085;SDS011;23001;45.952;12.676;2024-03-22T00:57:08;55.65;;;43.03;;
37085;SDS011;23001;45.952;12.676;2024-03-22T00:59:34;56.28;;;43.38;;
37085;SDS011;23001;45.952;12.676;2024-03-22T01:02:00;54.83;;;43.78;;
37085;SDS011;23001;45.952;12.676;2024-03-22T01:04:25;54.90;;;42.28;;
37085;SDS011;23001;45.952;12.676;2024-03-22T01:06:51;54.03;;;42.72;;
37085;SDS011;23001;45.952;12.676;2024-03-22T01:09:17;56.08;;;43.33;;
37085;SDS011;23001;45.952;12.676;2024-03-22T01:11:44;57.38;;;43.50;;
37085;SDS011;23001;45.952;12.676;2024-03-22T01:14:10;52.65;;;42.20;;
37085;SDS011;23001;45.952;12.676;2024-03-22T01:16:36;52.38;;;41.38;;
37085;SDS011;23001;45.952;12.676;2024-03-22T01:19:01;54.75;;;41.33;;
37085;SDS011;23001;45.952;12.676;2024-03-22T01:21:27;53.85;;;41.13;;
37085;SDS011;23001;45.952;12.676;2024-03-22T01:23:52;48.03;;;39.60;;
37085;SDS011;23001;45.952;12.676;2024-03-22T01:26:18;53.60;;;39.70;;
37085;SDS011;23001;45.952;12.676;2024-03-22T01:28:44;55.58;;;41.83;;
37085;SDS011;23001;45.952;12.676;2024-03-22T01:31:10;55.28;;;41.38;;
37085;SDS011;23001;45.952;12.676;2024-03-22T01:33:35;54.40;;;41.38;;
37085;SDS011;23001;45.952;12.676;2024-03-22T01:36:01;50.20;;;40.10;;
37085;SDS011;23001;45.952;12.676;2024-03-22T01:38:27;58.33;;;42.10;;
37085;SDS011;23001;45.952;12.676;2024-03-22T01:40:53;54.78;;;41.92;;
37085;SDS011;23001;45.952;12.676;2024-03-22T01:43:18;50.45;;;41.47;;
37085;SDS011;23001;45.952;12.676;2024-03-22T01:45:44;54.97;;;41.90;;
37085;SDS011;23001;45.952;12.676;2024-03-22T01:48:10;52.10;;;40.63;;
37085;SDS011;23001;45.952;12.676;2024-03-22T01:50:36;50.53;;;42.10;;
37085;SDS011;23001;45.952;12.676;2024-03-22T01:53:03;51.55;;;40.90;;
37085;SDS011;23001;45.952;12.676;2024-03-22T01:55:29;50.55;;;39.42;;
37085;SDS011;23001;45.952;12.676;2024-03-22T01:57:55;50.78;;;40.70;;
37085;SDS011;23001;45.952;12.676;2024-03-22T02:00:21;55.40;;;40.15;;
37085;SDS011;23001;45.952;12.676;2024-03-22T02:02:47;53.92;;;40.28;;
37085;SDS011;23001;45.952;12.676;2024-03-22T02:05:13;49.63;;;40.20;;
37085;SDS011;23001;45.952;12.676;2024-03-22T02:07:41;49.92;;;38.80;;
37085;SDS011;23001;45.952;12.676;2024-03-22T02:10:07;50.00;;;38.75;;
37085;SDS011;23001;45.952;12.676;2024-03-22T02:12:35;52.75;;;39.47;;
37085;SDS011;23001;45.952;12.676;2024-03-22T02:15:02;50.05;;;38.17;;
37085;SDS011;23001;45.952;12.676;2024-03-22T02:17:28;50.78;;;39.28;;
37085;SDS011;23001;45.952;12.676;2024-03-22T02:19:53;48.15;;;38.33;;
37085;SDS011;23001;45.952;12.676;2024-03-22T02:22:19;51.15;;;38.55;;
37085;SDS011;23001;45.952;12.676;2024-03-22T02:24:45;42.88;;;36.80;;
37085;SDS011;23001;45.952;12.676;2024-03-22T02:27:11;48.88;;;37.80;;
37085;SDS011;23001;45.952;12.676;2024-03-22T02:29:36;45.83;;;37.45;;
37085;SDS011;23001;45.952;12.676;2024-03-22T02:32:02;50.00;;;36.90;;
37085;SDS011;23001;45.952;12.676;2024-03-22T02:34:31;51.67;;;36.83;;
37085;SDS011;23001;45.952;12.676;2024-03-22T02:36:56;45.22;;;36.70;;
37085;SDS011;23001;45.952;12.676;2024-03-22T02:39:22;46.58;;;35.25;;
37085;SDS011;23001;45.952;12.676;2024-03-22T02:41:48;43.92;;;34.95;;
37085;SDS011;23001;45.952;12.676;2024-03-22T02:44:13;45.17;;;36.40;;
37085;SDS011;23001;45.952;12.676;2024-03-22T02:46:39;43.67;;;36.45;;
37085;SDS011;23001;45.952;12.676;2024-03-22T02:49:05;50.55;;;38.58;;
37085;SDS011;23001;45.952;12.676;2024-03-22T02:51:31;44.38;;;35.40;;
37085;SDS011;23001;45.952;12.676;2024-03-22T02:53:57;44.88;;;35.08;;
37085;SDS011;23001;45.952;12.676;2024-03-22T02:56:22;42.05;;;34.47;;
37085;SDS011;23001;45.952;12.676;2024-03-22T02:58:51;42.63;;;33.90;;
37085;SDS011;23001;45.952;12.676;2024-03-22T03:01:17;42.08;;;34.28;;
37085;SDS011;23001;45.952;12.676;2024-03-22T03:03:43;39.63;;;33.22;;
37085;SDS011;23001;45.952;12.676;2024-03-22T03:06:08;41.78;;;34.85;;
37085;SDS011;23001;45.952;12.676;2024-03-22T03:08:34;42.97;;;34.00;;
37085;SDS011;23001;45.952;12.676;2024-03-22T03:11:02;43.85;;;34.13;;
37085;SDS011;23001;45.952;12.676;2024-03-22T03:13:28;46.80;;;35.83;;
37085;SDS011;23001;45.952;12.676;2024-03-22T03:15:54;40.08;;;33.20;;
37085;SDS011;23001;45.952;12.676;2024-03-22T03:18:20;43.22;;;34.25;;
37085;SDS011;23001;45.952;12.676;2024-03-22T03:20:45;45.03;;;34.40;;
37085;SDS011;23001;45.952;12.676;2024-03-22T03:23:11;45.67;;;33.67;;
37085;SDS011;23001;45.952;12.676;2024-03-22T03:25:37;41.78;;;32.15;;
37085;SDS011;23001;45.952;12.676;2024-03-22T03:28:02;43.25;;;33.53;;
37085;SDS011;23001;45.952;12.676;2024-03-22T03:30:28;42.70;;;30.77;;
37085;SDS011;23001;45.952;12.676;2024-03-22T03:32:54;38.40;;;30.88;;
37085;SDS011;23001;45.952;12.676;2024-03-22T03:35:20;35.70;;;29.40;;
37085;SDS011;23001;45.952;12.676;2024-03-22T03:37:46;38.53;;;28.85;;
37085;SDS011;23001;45.952;12.676;2024-03-22T03:40:11;34.92;;;28.92;;
37085;SDS011;23001;45.952;12.676;2024-03-22T03:45:15;35.50;;;29.42;;
37085;SDS011;23001;45.952;12.676;2024-03-22T03:47:41;34.45;;;28.95;;
37085;SDS011;23001;45.952;12.676;2024-03-22T03:50:07;35.83;;;28.45;;
37085;SDS011;23001;45.952;12.676;2024-03-22T03:52:33;34.95;;;27.85;;
37085;SDS011;23001;45.952;12.676;2024-03-22T03:54:59;34.67;;;29.60;;
37085;SDS011;23001;45.952;12.676;2024-03-22T03:57:25;36.33;;;28.55;;
37085;SDS011;23001;45.952;12.676;2024-03-22T03:59:51;32.28;;;26.13;;
37085;SDS011;23001;45.952;12.676;2024-03-22T04:02:17;33.25;;;27.92;;
37085;SDS011;23001;45.952;12.676;2024-03-22T04:04:42;34.58;;;28.38;;
37085;SDS011;23001;45.952;12.676;2024-03-22T04:07:11;32.75;;;27.83;;
37085;SDS011;23001;45.952;12.676;2024-03-22T04:09:36;32.25;;;27.30;;
37085;SDS011;23001;45.952;12.676;2024-03-22T04:12:02;33.92;;;27.05;;
37085;SDS011;23001;45.952;12.676;2024-03-22T04:14:28;34.63;;;29.17;;
37085;SDS011;23001;45.952;12.676;2024-03-22T04:16:54;33.42;;;26.45;;
37085;SDS011;23001;45.952;12.676;2024-03-22T04:19:21;36.67;;;26.65;;
37085;SDS011;23001;45.952;12.676;2024-03-22T04:21:47;33.47;;;26.90;;
37085;SDS011;23001;45.952;12.676;2024-03-22T04:24:14;34.85;;;26.90;;
37085;SDS011;23001;45.952;12.676;2024-03-22T04:26:39;35.88;;;28.77;;
37085;SDS011;23001;45.952;12.676;2024-03-22T04:29:05;32.40;;;27.20;;
37085;SDS011;23001;45.952;12.676;2024-03-22T04:31:31;38.97;;;30.88;;
37085;SDS011;23001;45.952;12.676;2024-03-22T04:33:56;34.15;;;28.83;;
37085;SDS011;23001;45.952;12.676;2024-03-22T04:36:22;36.67;;;29.67;;
37085;SDS011;23001;45.952;12.676;2024-03-22T04:38:48;37.83;;;29.55;;
37085;SDS011;23001;45.952;12.676;2024-03-22T04:41:13;35.83;;;28.67;;
37085;SDS011;23001;45.952;12.676;2024-03-22T04:43:39;41.42;;;30.75;;
37085;SDS011;23001;45.952;12.676;2024-03-22T04:46:05;37.95;;;30.42;;
37085;SDS011;23001;45.952;12.676;2024-03-22T04:48:31;39.83;;;31.25;;
37085;SDS011;23001;45.952;12.676;2024-03-22T04:50:56;42.25;;;32.42;;
37085;SDS011;23001;45.952;12.676;2024-03-22T04:53:22;39.42;;;32.13;;
37085;SDS011;23001;45.952;12.676;2024-03-22T04:55:49;43.00;;;31.75;;
37085;SDS011;23001;45.952;12.676;2024-03-22T04:58:18;39.08;;;30.70;;
37085;SDS011;23001;45.952;12.676;2024-03-22T05:00:47;36.90;;;29.90;;
37085;SDS011;23001;45.952;12.676;2024-03-22T05:03:14;42.55;;;30.23;;
37085;SDS011;23001;45.952;12.676;2024-03-22T05:05:41;35.53;;;27.75;;
37085;SDS011;23001;45.952;12.676;2024-03-22T05:08:08;34.45;;;28.23;;
37085;SDS011;23001;45.952;12.676;2024-03-22T05:10:34;36.85;;;29.73;;
37085;SDS011;23001;45.952;12.676;2024-03-22T05:13:00;35.13;;;28.80;;
37085;SDS011;23001;45.952;12.676;2024-03-22T05:15:26;36.60;;;29.50;;
37085;SDS011;23001;45.952;12.676;2024-03-22T05:17:52;43.55;;;31.38;;
37085;SDS011;23001;45.952;12.676;2024-03-22T05:20:19;38.05;;;28.77;;
37085;SDS011;23001;45.952;12.676;2024-03-22T05:22:46;40.35;;;29.13;;
37085;SDS011;23001;45.952;12.676;2024-03-22T05:25:12;34.08;;;27.60;;
37085;SDS011;23001;45.952;12.676;2024-03-22T05:27:40;34.58;;;27.55;;
37085;SDS011;23001;45.952;12.676;2024-03-22T05:30:10;35.75;;;26.55;;
37085;SDS011;23001;45.952;12.676;2024-03-22T05:32:37;32.40;;;26.77;;
37085;SDS011;23001;45.952;12.676;2024-03-22T05:35:03;33.63;;;27.25;;
37085;SDS011;23001;45.952;12.676;2024-03-22T05:37:29;38.22;;;26.60;;
37085;SDS011;23001;45.952;12.676;2024-03-22T05:39:55;35.13;;;26.90;;
37085;SDS011;23001;45.952;12.676;2024-03-22T05:42:21;36.47;;;27.90;;
37085;SDS011;23001;45.952;12.676;2024-03-22T05:44:48;35.28;;;28.27;;
37085;SDS011;23001;45.952;12.676;2024-03-22T05:47:14;33.88;;;26.65;;
37085;SDS011;23001;45.952;12.676;2024-03-22T05:49:39;35.53;;;26.95;;
37085;SDS011;23001;45.952;12.676;2024-03-22T05:52:05;33.20;;;27.17;;
37085;SDS011;23001;45.952;12.676;2024-03-22T05:54:34;35.38;;;26.88;;
37085;SDS011;23001;45.952;12.676;2024-03-22T05:57:02;34.80;;;27.17;;
37085;SDS011;23001;45.952;12.676;2024-03-22T05:59:28;37.83;;;27.95;;
37085;SDS011;23001;45.952;12.676;2024-03-22T06:01:54;37.15;;;27.52;;
37085;SDS011;23001;45.952;12.676;2024-03-22T06:04:23;35.53;;;27.50;;
37085;SDS011;23001;45.952;12.676;2024-03-22T06:06:49;33.30;;;26.58;;
37085;SDS011;23001;45.952;12.676;2024-03-22T06:09:17;32.13;;;26.20;;
37085;SDS011;23001;45.952;12.676;2024-03-22T06:11:52;32.08;;;26.58;;
37085;SDS011;23001;45.952;12.676;2024-03-22T06:14:17;30.98;;;25.65;;
37085;SDS011;23001;45.952;12.676;2024-03-22T06:16:46;30.85;;;24.45;;
37085;SDS011;23001;45.952;12.676;2024-03-22T06:22:00;26.17;;;20.98;;
37085;SDS011;23001;45.952;12.676;2024-03-22T07:00:49;14.85;;;11.85;;
37085;SDS011;23001;45.952;12.676;2024-03-22T07:03:24;13.30;;;11.27;;
37085;SDS011;23001;45.952;12.676;2024-03-22T07:06:02;16.08;;;11.18;;
37085;SDS011;23001;45.952;12.676;2024-03-22T07:08:54;14.35;;;11.32;;
37085;SDS011;23001;45.952;12.676;2024-03-22T07:25:37;9.85;;;8.70;;
37085;SDS011;23001;45.952;12.676;2024-03-22T07:31:15;13.77;;;8.70;;
37085;SDS011;23001;45.952;12.676;2024-03-22T07:33:49;13.57;;;8.93;;
37085;SDS011;23001;45.952;12.676;2024-03-22T07:36:20;13.43;;;8.85;;
37085;SDS011;23001;45.952;12.676;2024-03-22T07:48:54;10.07;;;7.13;;
37085;SDS011;23001;45.952;12.676;2024-03-22T08:04:49;8.15;;;6.82;;
37085;SDS011;23001;45.952;12.676;2024-03-22T08:07:19;9.95;;;6.50;;
37085;SDS011;23001;45.952;12.676;2024-03-22T08:09:54;7.43;;;6.38;;
37085;SDS011;23001;45.952;12.676;2024-03-22T08:12:25;8.77;;;6.32;;
37085;SDS011;23001;45.952;12.676;2024-03-22T08:14:58;7.35;;;6.45;;
37085;SDS011;23001;45.952;12.676;2024-03-22T08:17:38;8.15;;;6.22;;
37085;SDS011;23001;45.952;12.676;2024-03-22T08:20:12;9.05;;;6.72;;
37085;SDS011;23001;45.952;12.676;2024-03-22T08:22:38;8.45;;;6.97;;
37085;SDS011;23001;45.952;12.676;2024-03-22T08:25:08;10.20;;;7.50;;
37085;SDS011;23001;45.952;12.676;2024-03-22T08:27:45;9.30;;;8.32;;
37085;SDS011;23001;45.952;12.676;2024-03-22T08:30:14;10.68;;;7.65;;
37085;SDS011;23001;45.952;12.676;2024-03-22T08:32:45;8.27;;;6.95;;
37085;SDS011;23001;45.952;12.676;2024-03-22T08:35:19;7.93;;;7.13;;
37085;SDS011;23001;45.952;12.676;2024-03-22T08:37:48;9.48;;;7.88;;
37085;SDS011;23001;45.952;12.676;2024-03-22T08:40:17;9.02;;;8.13;;
37085;SDS011;23001;45.952;12.676;2024-03-22T08:42:56;9.10;;;8.18;;
37085;SDS011;23001;45.952;12.676;2024-03-22T08:45:22;9.88;;;8.95;;
37085;SDS011;23001;45.952;12.676;2024-03-22T08:47:48;10.77;;;9.20;;
37085;SDS011;23001;45.952;12.676;2024-03-22T08:50:14;11.93;;;9.93;;
37085;SDS011;23001;45.952;12.676;2024-03-22T08:52:43;10.32;;;9.25;;
37085;SDS011;23001;45.952;12.676;2024-03-22T08:55:12;10.23;;;9.18;;
37085;SDS011;23001;45.952;12.676;2024-03-22T08:57:47;12.35;;;9.40;;
37085;SDS011;23001;45.952;12.676;2024-03-22T09:00:18;10.73;;;8.57;;
37085;SDS011;23001;45.952;12.676;2024-03-22T09:02:50;10.73;;;9.65;;
37085;SDS011;23001;45.952;12.676;2024-03-22T09:05:18;11.32;;;9.88;;
37085;SDS011;23001;45.952;12.676;2024-03-22T09:07:47;11.30;;;9.38;;
37085;SDS011;23001;45.952;12.676;2024-03-22T09:10:18;13.77;;;10.55;;
37085;SDS011;23001;45.952;12.676;2024-03-22T09:12:44;9.93;;;8.93;;
37085;SDS011;23001;45.952;12.676;2024-03-22T09:15:15;16.85;;;10.35;;
37085;SDS011;23001;45.952;12.676;2024-03-22T09:17:44;9.40;;;8.40;;
37085;SDS011;23001;45.952;12.676;2024-03-22T09:20:18;11.32;;;8.75;;
37085;SDS011;23001;45.952;12.676;2024-03-22T09:22:48;10.15;;;8.35;;
37085;SDS011;23001;45.952;12.676;2024-03-22T09:25:15;9.10;;;7.97;;
37085;SDS011;23001;45.952;12.676;2024-03-22T09:27:41;9.73;;;8.50;;
37085;SDS011;23001;45.952;12.676;2024-03-22T09:30:14;10.10;;;8.85;;
37085;SDS011;23001;45.952;12.676;2024-03-22T09:32:44;9.90;;;8.50;;
37085;SDS011;23001;45.952;12.676;2024-03-22T09:35:10;8.82;;;7.75;;
37085;SDS011;23001;45.952;12.676;2024-03-22T09:37:39;9.98;;;8.00;;
37085;SDS011;23001;45.952;12.676;2024-03-22T09:40:06;9.95;;;8.55;;
37085;SDS011;23001;45.952;12.676;2024-03-22T09:42:38;11.70;;;7.25;;
37085;SDS011;23001;45.952;12.676;2024-03-22T10:06:35;10.63;;;7.15;;
37085;SDS011;23001;45.952;12.676;2024-03-22T10:09:02;8.77;;;6.13;;
37085;SDS011;23001;45.952;12.676;2024-03-22T10:11:29;6.75;;;5.93;;
37085;SDS011;23001;45.952;12.676;2024-03-22T10:13:55;6.22;;;5.22;;
37085;SDS011;23001;45.952;12.676;2024-03-22T10:16:21;7.20;;;5.63;;
37085;SDS011;23001;45.952;12.676;2024-03-22T10:18:47;5.65;;;5.10;;
37085;SDS011;23001;45.952;12.676;2024-03-22T10:21:16;8.13;;;6.60;;
37085;SDS011;23001;45.952;12.676;2024-03-22T10:23:43;6.72;;;6.00;;
37085;SDS011;23001;45.952;12.676;2024-03-22T10:26:09;8.38;;;5.50;;
37085;SDS011;23001;45.952;12.676;2024-03-22T10:28:35;6.30;;;5.65;;
37085;SDS011;23001;45.952;12.676;2024-03-22T10:31:08;7.13;;;5.60;;
37085;SDS011;23001;45.952;12.676;2024-03-22T10:33:35;7.57;;;5.85;;
37085;SDS011;23001;45.952;12.676;2024-03-22T10:36:01;7.72;;;6.75;;
37085;SDS011;23001;45.952;12.676;2024-03-22T10:38:27;7.68;;;5.32;;
37085;SDS011;23001;45.952;12.676;2024-03-22T10:40:53;5.35;;;4.85;;
37085;SDS011;23001;45.952;12.676;2024-03-22T10:43:21;5.88;;;4.95;;
37085;SDS011;23001;45.952;12.676;2024-03-22T10:45:47;6.50;;;5.80;;
37085;SDS011;23001;45.952;12.676;2024-03-22T10:48:15;5.43;;;4.10;;
37085;SDS011;23001;45.952;12.676;2024-03-22T10:50:43;4.60;;;4.00;;
37085;SDS011;23001;45.952;12.676;2024-03-22T10:53:09;4.95;;;3.70;;
37085;SDS011;23001;45.952;12.676;2024-03-22T10:55:38;4.18;;;3.17;;
37085;SDS011;23001;45.952;12.676;2024-03-22T10:58:15;6.70;;;3.70;;
37085;SDS011;23001;45.952;12.676;2024-03-22T11:00:46;3.65;;;3.22;;
37085;SDS011;23001;45.952;12.676;2024-03-22T11:03:15;6.05;;;4.40;;
37085;SDS011;23001;45.952;12.676;2024-03-22T11:05:47;5.55;;;4.60;;
37085;SDS011;23001;45.952;12.676;2024-03-22T11:08:23;4.50;;;4.10;;
37085;SDS011;23001;45.952;12.676;2024-03-22T11:10:49;5.15;;;4.57;;
37085;SDS011;23001;45.952;12.676;2024-03-22T11:13:16;4.18;;;3.45;;
37085;SDS011;23001;45.952;12.676;2024-03-22T11:15:42;4.55;;;4.15;;
37085;SDS011;23001;45.952;12.676;2024-03-22T11:18:08;4.57;;;3.60;;
37085;SDS011;23001;45.952;12.676;2024-03-22T11:20:37;4.45;;;3.85;;
37085;SDS011;23001;45.952;12.676;2024-03-22T11:23:05;3.95;;;3.55;;
37085;SDS011;23001;45.952;12.676;2024-03-22T11:25:32;4.80;;;3.53;;
37085;SDS011;23001;45.952;12.676;2024-03-22T11:27:59;5.43;;;4.60;;
37085;SDS011;23001;45.952;12.676;2024-03-22T11:30:28;4.50;;;4.10;;
37085;SDS011;23001;45.952;12.676;2024-03-22T11:32:54;6.38;;;5.00;;
37085;SDS011;23001;45.952;12.676;2024-03-22T11:35:21;5.50;;;4.70;;
37085;SDS011;23001;45.952;12.676;2024-03-22T11:37:48;6.38;;;4.05;;
37085;SDS011;23001;45.952;12.676;2024-03-22T11:40:15;5.50;;;4.07;;
37085;SDS011;23001;45.952;12.676;2024-03-22T11:42:47;4.55;;;3.25;;
37085;SDS011;23001;45.952;12.676;2024-03-22T11:45:15;6.00;;;4.47;;
37085;SDS011;23001;45.952;12.676;2024-03-22T11:47:46;2.85;;;2.55;;
37085;SDS011;23001;45.952;12.676;2024-03-22T11:50:12;3.80;;;3.42;;
37085;SDS011;23001;45.952;12.676;2024-03-22T11:52:42;4.32;;;3.92;;
37085;SDS011;23001;45.952;12.676;2024-03-22T11:55:11;5.55;;;5.05;;
37085;SDS011;23001;45.952;12.676;2024-03-22T11:57:37;4.32;;;3.92;;
37085;SDS011;23001;45.952;12.676;2024-03-22T12:00:03;5.45;;;4.95;;
37085;SDS011;23001;45.952;12.676;2024-03-22T12:02:34;5.03;;;4.53;;
37085;SDS011;23001;45.952;12.676;2024-03-22T12:05:01;6.93;;;4.47;;
37085;SDS011;23001;45.952;12.676;2024-03-22T12:07:28;4.43;;;3.63;;
37085;SDS011;23001;45.952;12.676;2024-03-22T12:09:54;5.93;;;5.00;;
37085;SDS011;23001;45.952;12.676;2024-03-22T12:12:21;5.53;;;4.45;;
37085;SDS011;23001;45.952;12.676;2024-03-22T12:14:47;6.70;;;4.97;;
37085;SDS011;23001;45.952;12.676;2024-03-22T12:17:13;6.95;;;4.85;;
37085;SDS011;23001;45.952;12.676;2024-03-22T12:19:39;6.88;;;5.38;;
37085;SDS011;23001;45.952;12.676;2024-03-22T12:22:05;7.47;;;4.60;;
37085;SDS011;23001;45.952;12.676;2024-03-22T12:24:32;5.78;;;4.80;;
37085;SDS011;23001;45.952;12.676;2024-03-22T12:26:58;4.70;;;4.22;;
37085;SDS011;23001;45.952;12.676;2024-03-22T12:29:24;6.18;;;4.50;;
37085;SDS011;23001;45.952;12.676;2024-03-22T12:31:50;4.43;;;4.03;;
37085;SDS011;23001;45.952;12.676;2024-03-22T12:34:16;4.82;;;3.90;;
37085;SDS011;23001;45.952;12.676;2024-03-22T12:36:42;4.80;;;2.70;;
37085;SDS011;23001;45.952;12.676;2024-03-22T12:39:08;3.05;;;2.15;;
37085;SDS011;23001;45.952;12.676;2024-03-22T12:41:34;3.60;;;2.17;;
37085;SDS011;23001;45.952;12.676;2024-03-22T12:44:00;4.05;;;2.72;;
37085;SDS011;23001;45.952;12.676;2024-03-22T12:46:26;3.40;;;2.65;;
37085;SDS011;23001;45.952;12.676;2024-03-22T12:48:54;4.20;;;3.78;;
37085;SDS011;23001;45.952;12.676;2024-03-22T12:51:20;4.05;;;3.10;;
37085;SDS011;23001;45.952;12.676;2024-03-22T12:53:46;4.90;;;3.47;;
37085;SDS011;23001;45.952;12.676;2024-03-22T12:56:12;3.40;;;3.10;;
37085;SDS011;23001;45.952;12.676;2024-03-22T12:58:38;5.30;;;3.10;;
37085;SDS011;23001;45.952;12.676;2024-03-22T13:01:06;4.65;;;3.72;;
37085;SDS011;23001;45.952;12.676;2024-03-22T13:03:33;5.10;;;4.28;;
37085;SDS011;23001;45.952;12.676;2024-03-22T13:05:59;5.32;;;4.13;;
37085;SDS011;23001;45.952;12.676;2024-03-22T13:08:25;5.97;;;4.65;;
37085;SDS011;23001;45.952;12.676;2024-03-22T13:10:50;5.63;;;4.70;;
37085;SDS011;23001;45.952;12.676;2024-03-22T13:13:17;3.65;;;3.35;;
37085;SDS011;23001;45.952;12.676;2024-03-22T13:15:43;4.10;;;3.55;;
37085;SDS011;23001;45.952;12.676;2024-03-22T13:18:09;11.02;;;8.82;;
37085;SDS011;23001;45.952;12.676;2024-03-22T13:20:35;6.90;;;5.45;;
37085;SDS011;23001;45.952;12.676;2024-03-22T13:23:01;5.75;;;5.18;;
37085;SDS011;23001;45.952;12.676;2024-03-22T13:25:28;9.50;;;5.55;;
37085;SDS011;23001;45.952;12.676;2024-03-22T13:27:53;5.18;;;4.38;;
37085;SDS011;23001;45.952;12.676;2024-03-22T13:30:19;5.07;;;3.40;;
37085;SDS011;23001;45.952;12.676;2024-03-22T13:32:45;4.00;;;3.60;;
37085;SDS011;23001;45.952;12.676;2024-03-22T13:35:10;4.70;;;3.92;;
37085;SDS011;23001;45.952;12.676;2024-03-22T13:37:36;5.85;;;3.92;;
37085;SDS011;23001;45.952;12.676;2024-03-22T13:40:02;5.78;;;3.78;;
37085;SDS011;23001;45.952;12.676;2024-03-22T13:42:28;4.65;;;3.60;;
37085;SDS011;23001;45.952;12.676;2024-03-22T13:44:53;4.47;;;3.97;;
37085;SDS011;23001;45.952;12.676;2024-03-22T13:47:21;3.88;;;3.15;;
37085;SDS011;23001;45.952;12.676;2024-03-22T13:49:47;5.07;;;3.47;;
37085;SDS011;23001;45.952;12.676;2024-03-22T13:52:12;3.22;;;2.92;;
37085;SDS011;23001;45.952;12.676;2024-03-22T13:54:38;3.85;;;3.38;;
37085;SDS011;23001;45.952;12.676;2024-03-22T13:57:04;5.82;;;3.45;;
37085;SDS011;23001;45.952;12.676;2024-03-22T13:59:30;4.18;;;3.40;;
37085;SDS011;23001;45.952;12.676;2024-03-22T14:01:56;4.88;;;3.10;;
37085;SDS011;23001;45.952;12.676;2024-03-22T14:04:24;3.50;;;2.95;;
37085;SDS011;23001;45.952;12.676;2024-03-22T14:06:51;3.30;;;3.00;;
37085;SDS011;23001;45.952;12.676;2024-03-22T14:09:17;4.57;;;3.28;;
37085;SDS011;23001;45.952;12.676;2024-03-22T14:11:43;3.33;;;3.03;;
37085;SDS011;23001;45.952;12.676;2024-03-22T14:14:10;3.35;;;2.88;;
37085;SDS011;23001;45.952;12.676;2024-03-22T14:16:39;4.13;;;2.63;;
37085;SDS011;23001;45.952;12.676;2024-03-22T14:19:05;3.85;;;2.47;;
37085;SDS011;23001;45.952;12.676;2024-03-22T14:21:32;3.20;;;2.40;;
37085;SDS011;23001;45.952;12.676;2024-03-22T14:23:58;3.47;;;2.70;;
37085;SDS011;23001;45.952;12.676;2024-03-22T14:26:23;2.50;;;2.30;;
37085;SDS011;23001;45.952;12.676;2024-03-22T14:28:49;4.18;;;2.83;;
37085;SDS011;23001;45.952;12.676;2024-03-22T14:31:15;4.60;;;2.80;;
37085;SDS011;23001;45.952;12.676;2024-03-22T14:33:41;3.13;;;2.83;;
37085;SDS011;23001;45.952;12.676;2024-03-22T14:36:08;2.60;;;2.40;;
37085;SDS011;23001;45.952;12.676;2024-03-22T14:38:34;2.90;;;2.33;;
37085;SDS011;23001;45.952;12.676;2024-03-22T14:41:12;6.13;;;2.28;;
37085;SDS011;23001;45.952;12.676;2024-03-22T14:43:38;2.92;;;2.30;;
37085;SDS011;23001;45.952;12.676;2024-03-22T14:46:03;3.10;;;2.80;;
37085;SDS011;23001;45.952;12.676;2024-03-22T14:48:29;3.78;;;2.75;;
37085;SDS011;23001;45.952;12.676;2024-03-22T14:50:54;3.35;;;2.83;;
37085;SDS011;23001;45.952;12.676;2024-03-22T14:53:20;5.72;;;2.78;;
37085;SDS011;23001;45.952;12.676;2024-03-22T14:58:19;3.35;;;2.75;;
37085;SDS011;23001;45.952;12.676;2024-03-22T15:00:52;3.88;;;2.55;;
37085;SDS011;23001;45.952;12.676;2024-03-22T15:03:22;4.78;;;2.25;;
37085;SDS011;23001;45.952;12.676;2024-03-22T15:05:51;3.10;;;2.80;;
37085;SDS011;23001;45.952;12.676;2024-03-22T15:08:18;3.28;;;2.92;;
37085;SDS011;23001;45.952;12.676;2024-03-22T15:10:44;4.57;;;2.80;;
37085;SDS011;23001;45.952;12.676;2024-03-22T15:13:11;3.90;;;2.30;;
37085;SDS011;23001;45.952;12.676;2024-03-22T15:15:38;2.90;;;2.70;;
37085;SDS011;23001;45.952;12.676;2024-03-22T15:18:03;2.60;;;2.40;;
37085;SDS011;23001;45.952;12.676;2024-03-22T15:20:30;5.00;;;3.40;;
37085;SDS011;23001;45.952;12.676;2024-03-22T15:22:57;5.68;;;3.40;;
37085;SDS011;23001;45.952;12.676;2024-03-22T15:25:23;4.03;;;3.47;;
37085;SDS011;23001;45.952;12.676;2024-03-22T15:27:48;4.93;;;3.55;;
37085;SDS011;23001;45.952;12.676;2024-03-22T15:30:14;4.22;;;3.55;;
37085;SDS011;23001;45.952;12.676;2024-03-22T15:32:40;4.93;;;4.22;;
37085;SDS011;23001;45.952;12.676;2024-03-22T15:35:06;6.70;;;4.47;;
37085;SDS011;23001;45.952;12.676;2024-03-22T15:37:34;5.97;;;4.53;;
37085;SDS011;23001;45.952;12.676;2024-03-22T15:40:00;5.75;;;4.40;;
37085;SDS011;23001;45.952;12.676;2024-03-22T15:42:26;5.65;;;4.40;;
37085;SDS011;23001;45.952;12.676;2024-03-22T15:44:52;7.20;;;4.55;;
37085;SDS011;23001;45.952;12.676;2024-03-22T15:47:18;4.75;;;3.90;;
37085;SDS011;23001;45.952;12.676;2024-03-22T15:49:44;6.20;;;4.85;;
37085;SDS011;23001;45.952;12.676;2024-03-22T15:52:10;6.85;;;4.13;;
37085;SDS011;23001;45.952;12.676;2024-03-22T15:54:35;6.97;;;3.83;;
37085;SDS011;23001;45.952;12.676;2024-03-22T15:57:01;6.50;;;3.95;;
37085;SDS011;23001;45.952;12.676;2024-03-22T15:59:27;4.57;;;3.85;;
37085;SDS011;23001;45.952;12.676;2024-03-22T16:01:53;4.82;;;3.70;;
37085;SDS011;23001;45.952;12.676;2024-03-22T16:04:18;3.95;;;3.38;;
37085;SDS011;23001;45.952;12.676;2024-03-22T16:06:47;4.53;;;3.90;;